Olympic National Park, WA

05:25 AM PDT am 02. Oktober 2014 (GMT -0700)
Whidbey Island Naval Air Station | Change Station
CLOSE
Current Station
Flughafen
Location: Whidbey Island,
Höhe: 46 ft
Wetterstationen in der Umgebung

Höhe 46 ft 48.35 °N, 122.66 °W | Updated 29 minutes ago

Wolkig
Wolkig
50 °F
gefühlte 50 °F
N
0
Wind Wechselnd Wind aus Nord

Heute
Max. -- | schwach -- °F
--% Regenrisiko
Gestern
Max. -- | schwach -- °F
Precip. -- inch
7:14 AM 6:50 PM
Erstes Viertel, 58% visible
Druck 30.25 inch
Sichtweite 9.0 Meilen
Wolken Few 5000 ft
Teils Wolkig 7000 ft
Teils Wolkig 16000 ft
Taupunkt 47 °F
Feuchtigkeit 89%
Regen 0.00 inch
Schneehöhe 0 in , 0 in , 0 in
UV 0 von 12
Pollen .90 von 12
PM2.5 Gut
Flu Activity Nicht verfügbar..
METAR KNUW 021156Z 00000KT 9SM FEW050 SCT070 SCT160 10/08 A3024 RMK AO2 SLP242 T01000083 10133 20094 53009 $

More Conditions Fewer Conditions

Druck 30.25 inch
Sichtweite 9.0 Meilen
Wolken Few 5000 ft
Teils Wolkig 7000 ft
Teils Wolkig 16000 ft
Taupunkt 47 °F
Feuchtigkeit 89%
Regen 0.00 inch
Schneehöhe 0 in , 0 in , 0 in
UV 0 von 12
Pollen .90 von 12
PM2.5 Gut
Flu Activity Nicht verfügbar..
METAR KNUW 021156Z 00000KT 9SM FEW050 SCT070 SCT160 10/08 A3024 RMK AO2 SLP242 T01000083 10133 20094 53009 $

More Conditions Fewer Conditions

10-Day Weather Forecast

Almanac

Astronomie

Oct. 02, 2014 Aufgang Untergang
Genaue Zeit 07:14 PDT 18:50 PDT
Bürgerliche Dämmerung 06:43 PDT 19:21 PDT
Nautische Dämmerung 06:07 PDT 19:57 PDT
Astronomische Dämmerung 05:31 PDT 20:34 PDT
Mond 15:24 PDT 00:12 PDT
Länge des sichtbaren Lichts 12h 37m
Tageslänge
11h 36m
Tomorrow will be 3m 27s shorter.
Erstes Viertel, 58% of the Moon is Illuminated
Heute
Erstes Viertel
Okt 8
Vollmond
Okt 15
Letztes Viertel
Okt 23
Neu
Okt 30
Erstes Viertel

Heutige Rekorde

State Highs State Lows

Community

WunderPhotos

Upload Photos

1,758,223 Fotos hochgeladen!

WunderBlogs® & News

Nearby

Luftqualität

  Luftqualität LQ Index Schadstoff
Gestern Gut
PM2.5
Aktuell Gut
PM2.5

Schneehöhe

Station Depth Höhe
Blewett Pass 0 in 4270 ft
Stampede Pass 0 in 3860 ft
Dungeness 0 in 4100 ft
Spencer Meadow 0 in 3400 ft
Mount Crag 0 in 4050 ft

Erdbebenaktivität

Stadt Distance Mag. Time & Date
No recent earthquake activity has been reported nearby.
Minimum magnitude displayed is 2.5.

küstennahe Wassertemperaturen

Ort Temperatur
Port Angeles, WA 52.0 °F
Friday Harbor, WA 51.1 °F
Port Townsend, WA 52.0 °F
La Push, WA 57.9 °F

Wetterstationen in der Umgebung